Terminal Aerodrome Forecast
Issued by NWS

Home | Current Version | Previous Version | Text Only | Print | Product List | Glossary On
Versions: 1 2 3 4 5 6 7 8 9 10 11 12 13 14 15
630
FTUS46 KPDT 252326 CCA
TAFYKM
TAF COR
KYKM 252326Z 2600/2624 23010KT P6SM SCT070 BKN150
     FM260600 28006KT P6SM BKN200
     FM261200 27005KT P6SM SCT050 BKN100
     FM261800 VRB05KT P6SM -SHRA SCT030 OVC040=

USA.gov is the U.S. government's official web portal to all federal, state and local government web resources and services.